createdAt,value
2024-05-09T00:00:42.745Z,14.61
2024-05-09T00:03:35.041Z,14.58
2024-05-09T00:06:26.908Z,14.54
2024-05-09T00:09:18.800Z,14.49
2024-05-09T00:12:11.104Z,14.43
2024-05-09T00:15:03.134Z,14.37
2024-05-09T00:17:55.106Z,14.33
2024-05-09T00:20:47.620Z,14.33
2024-05-09T00:23:39.854Z,14.33
2024-05-09T00:26:32.268Z,14.34
2024-05-09T00:29:28.059Z,14.36
2024-05-09T00:32:20.204Z,14.34
2024-05-09T00:35:12.395Z,14.35
2024-05-09T00:38:04.906Z,14.34
2024-05-09T00:40:57.463Z,14.31
2024-05-09T00:43:49.608Z,14.30
2024-05-09T00:46:41.847Z,14.29
2024-05-09T00:49:35.616Z,14.28
2024-05-09T00:52:28.678Z,14.29
2024-05-09T00:55:21.068Z,14.30
2024-05-09T00:58:16.951Z,14.31
2024-05-09T01:01:09.279Z,14.32
2024-05-09T01:04:02.626Z,14.33
2024-05-09T01:06:54.810Z,14.33
2024-05-09T01:09:46.793Z,14.33
2024-05-09T01:12:38.823Z,14.31
2024-05-09T01:15:30.801Z,14.31
2024-05-09T01:18:23.301Z,14.30
2024-05-09T01:21:15.268Z,14.29
2024-05-09T01:24:07.668Z,14.29
2024-05-09T01:26:59.515Z,14.28
2024-05-09T01:29:51.436Z,14.28
2024-05-09T01:32:43.632Z,14.27
2024-05-09T01:35:35.766Z,14.25
2024-05-09T01:38:27.955Z,14.22
2024-05-09T01:41:20.024Z,14.19
2024-05-09T01:44:12.222Z,14.17
2024-05-09T01:47:04.006Z,14.15
2024-05-09T01:49:56.958Z,14.15
2024-05-09T01:52:48.986Z,14.16
2024-05-09T01:55:41.736Z,14.18
2024-05-09T01:58:33.220Z,14.22
2024-05-09T02:01:27.160Z,14.26
2024-05-09T02:04:21.929Z,14.29
2024-05-09T02:07:18.343Z,14.29
2024-05-09T02:10:16.457Z,14.29
2024-05-09T02:13:13.151Z,14.27
2024-05-09T02:16:04.856Z,14.23
2024-05-09T02:18:56.360Z,14.17
2024-05-09T02:21:48.852Z,14.10
2024-05-09T02:24:40.493Z,14.03
2024-05-09T02:27:32.466Z,14.00
2024-05-09T02:30:31.095Z,13.97
2024-05-09T02:33:31.224Z,13.91
2024-05-09T02:36:23.471Z,13.87
2024-05-09T02:39:15.207Z,13.83
2024-05-09T02:42:07.169Z,13.77
2024-05-09T02:44:59.020Z,13.70
2024-05-09T02:47:51.053Z,13.64
2024-05-09T02:50:44.831Z,13.60
2024-05-09T02:53:37.017Z,13.56
2024-05-09T02:56:29.017Z,13.55
2024-05-09T02:59:21.706Z,13.54
2024-05-09T03:02:14.264Z,13.54
2024-05-09T03:05:06.899Z,13.52
2024-05-09T03:07:59.592Z,13.47
2024-05-09T03:10:51.532Z,13.43
2024-05-09T03:13:44.098Z,13.39
2024-05-09T03:16:39.963Z,13.34
2024-05-09T03:19:33.497Z,13.32
2024-05-09T03:22:27.929Z,13.30
2024-05-09T03:25:20.082Z,13.30
2024-05-09T03:28:12.301Z,13.27
2024-05-09T03:31:04.187Z,13.25
2024-05-09T03:33:56.227Z,13.24
2024-05-09T03:36:48.490Z,13.25
2024-05-09T03:39:40.424Z,13.24
2024-05-09T03:42:32.609Z,13.24
2024-05-09T03:45:25.404Z,13.23
2024-05-09T03:48:17.580Z,13.22
2024-05-09T03:51:09.829Z,13.20
2024-05-09T03:54:02.036Z,13.19
2024-05-09T03:56:54.295Z,13.17
2024-05-09T03:59:46.106Z,13.14
2024-05-09T04:02:39.956Z,13.10
2024-05-09T04:05:32.839Z,13.04
2024-05-09T04:08:25.236Z,12.98
2024-05-09T04:11:17.450Z,12.93
2024-05-09T04:14:09.472Z,12.89
2024-05-09T04:17:01.455Z,12.87
2024-05-09T04:19:53.300Z,12.85
2024-05-09T04:22:46.252Z,12.83
2024-05-09T04:25:45.156Z,12.80
2024-05-09T04:28:38.087Z,12.77
2024-05-09T04:31:23.851Z,12.76
2024-05-09T04:34:15.888Z,12.75
2024-05-09T04:37:08.122Z,12.75
2024-05-09T04:40:00.834Z,12.76
2024-05-09T04:42:52.802Z,12.76
2024-05-09T04:45:44.752Z,12.75
2024-05-09T04:48:36.689Z,12.75
2024-05-09T04:51:28.535Z,12.72
2024-05-09T04:54:30.213Z,12.70
2024-05-09T04:57:30.059Z,12.69
2024-05-09T05:00:31.691Z,12.70
2024-05-09T05:03:28.088Z,12.72
2024-05-09T05:06:20.248Z,12.75
2024-05-09T05:09:12.286Z,12.80
2024-05-09T05:12:24.192Z,12.84
2024-05-09T05:15:16.531Z,12.87
2024-05-09T05:18:09.416Z,12.91
2024-05-09T05:21:01.812Z,12.95
2024-05-09T05:23:53.950Z,12.99
2024-05-09T05:26:46.267Z,13.05
2024-05-09T05:29:38.156Z,13.13
2024-05-09T05:32:31.247Z,13.21
2024-05-09T05:35:23.622Z,13.31
2024-05-09T05:38:15.970Z,13.41
2024-05-09T05:41:08.036Z,13.49
2024-05-09T05:44:01.055Z,13.54
2024-05-09T05:46:53.539Z,13.59
2024-05-09T05:49:45.499Z,13.62
2024-05-09T05:52:37.604Z,13.67
2024-05-09T05:55:29.385Z,13.74
2024-05-09T05:58:22.441Z,13.81
2024-05-09T06:01:14.209Z,13.88
2024-05-09T06:04:06.221Z,13.96
2024-05-09T06:06:58.126Z,14.03
2024-05-09T06:09:50.572Z,14.11
2024-05-09T06:12:43.391Z,14.21
2024-05-09T06:15:35.623Z,14.29
2024-05-09T06:18:28.151Z,14.35
2024-05-09T06:21:20.570Z,14.42
2024-05-09T06:24:12.938Z,14.48
2024-05-09T06:27:06.025Z,14.56
2024-05-09T06:29:58.539Z,14.66
2024-05-09T06:32:51.310Z,14.77
2024-05-09T06:35:44.353Z,14.90
2024-05-09T06:38:37.811Z,15.03
2024-05-09T06:41:29.967Z,15.17
2024-05-09T06:44:24.850Z,15.28
2024-05-09T06:47:16.964Z,15.39
2024-05-09T06:50:19.603Z,15.47
2024-05-09T06:53:16.755Z,15.58
2024-05-09T06:56:09.867Z,15.67
2024-05-09T06:59:02.161Z,15.76
2024-05-09T07:01:54.660Z,15.85
2024-05-09T07:04:47.737Z,15.97
2024-05-09T07:07:39.887Z,16.10
2024-05-09T07:10:35.290Z,16.26
2024-05-09T07:13:28.474Z,16.44
2024-05-09T07:16:20.287Z,16.61
2024-05-09T07:19:12.758Z,16.76
2024-05-09T07:22:05.749Z,16.88
2024-05-09T07:24:57.838Z,17.02
2024-05-09T07:27:50.319Z,17.14
2024-05-09T07:30:43.111Z,17.28
2024-05-09T07:33:37.412Z,17.42
2024-05-09T07:36:29.614Z,17.63
2024-05-09T07:39:22.818Z,17.89
2024-05-09T07:42:14.482Z,18.23
2024-05-09T07:45:24.242Z,18.58
2024-05-09T07:54:14.189Z,19.99
2024-05-09T07:57:06.113Z,20.55
2024-05-09T07:59:57.809Z,21.08
2024-05-09T08:02:49.622Z,21.45
2024-05-09T08:05:42.261Z,21.78
2024-05-09T08:08:34.202Z,22.22
2024-05-09T08:11:25.997Z,22.75
2024-05-09T08:14:18.919Z,23.40
2024-05-09T08:17:12.340Z,24.12
2024-05-09T08:20:05.568Z,24.75
2024-05-09T08:22:58.802Z,25.42
2024-05-09T08:25:50.680Z,25.88
2024-05-09T08:28:43.498Z,26.30
2024-05-09T08:31:39.567Z,26.68
2024-05-09T08:34:31.566Z,26.81
2024-05-09T08:37:27.659Z,26.94
2024-05-09T08:40:30.776Z,27.20
2024-05-09T08:43:27.585Z,27.41
2024-05-09T08:46:19.715Z,27.59
2024-05-09T08:49:12.315Z,27.75
2024-05-09T08:52:09.694Z,27.76
2024-05-09T08:55:02.454Z,27.88
2024-05-09T08:57:55.394Z,28.09
2024-05-09T09:00:50.085Z,28.23
2024-05-09T09:03:44.597Z,28.24
2024-05-09T09:06:38.415Z,28.37
2024-05-09T09:09:33.236Z,28.44
2024-05-09T09:12:25.141Z,28.33
2024-05-09T09:15:17.187Z,28.49
2024-05-09T09:18:12.224Z,28.52
2024-05-09T09:21:04.686Z,28.85
2024-05-09T09:23:57.084Z,29.18
2024-05-09T09:26:52.092Z,29.67
2024-05-09T09:29:44.802Z,30.16
2024-05-09T09:32:36.673Z,30.66
2024-05-09T09:35:29.231Z,30.49
2024-05-09T09:38:24.644Z,30.12
2024-05-09T09:41:22.748Z,29.72
2024-05-09T09:44:14.583Z,29.60
2024-05-09T09:47:07.117Z,29.76
2024-05-09T09:49:59.876Z,29.90
2024-05-09T09:52:53.356Z,30.27
2024-05-09T09:55:45.931Z,30.68
2024-05-09T09:58:39.505Z,30.86
2024-05-09T10:01:31.133Z,30.75
2024-05-09T10:04:24.587Z,30.79
2024-05-09T10:07:19.796Z,30.91
2024-05-09T10:10:16.135Z,30.82
2024-05-09T10:13:11.818Z,30.85
2024-05-09T10:16:11.398Z,31.07
2024-05-09T10:19:03.783Z,31.25
2024-05-09T10:22:03.247Z,31.80
2024-05-09T10:25:05.115Z,32.76
2024-05-09T10:27:58.607Z,33.63
2024-05-09T10:31:02.680Z,34.26
2024-05-09T10:33:55.732Z,35.02
2024-05-09T10:36:47.293Z,35.27
2024-05-09T10:39:39.838Z,35.68
2024-05-09T10:42:32.261Z,36.31
2024-05-09T10:45:25.846Z,36.47
2024-05-09T10:48:18.094Z,36.45
2024-05-09T10:51:11.318Z,36.25
2024-05-09T10:54:03.058Z,36.07
2024-05-09T10:56:59.738Z,36.13
2024-05-09T10:59:53.215Z,36.57
2024-05-09T11:02:45.485Z,36.94
2024-05-09T11:05:39.023Z,37.18
2024-05-09T11:08:32.640Z,37.19
2024-05-09T11:11:24.321Z,37.19
2024-05-09T11:14:17.265Z,37.36
2024-05-09T11:17:09.770Z,37.63
2024-05-09T11:20:06.240Z,37.75
2024-05-09T11:23:09.637Z,37.93
2024-05-09T11:26:01.938Z,38.13
2024-05-09T11:28:54.366Z,37.62
2024-05-09T11:31:52.545Z,37.52
2024-05-09T11:34:44.932Z,38.06
2024-05-09T11:37:40.778Z,38.26
2024-05-09T11:40:34.541Z,37.78
2024-05-09T11:43:27.057Z,37.48
2024-05-09T11:46:19.279Z,36.51
2024-05-09T11:49:12.051Z,36.38
2024-05-09T11:52:04.245Z,36.63
2024-05-09T11:54:57.213Z,36.92
2024-05-09T11:57:49.674Z,37.35
2024-05-09T12:00:41.709Z,36.98
2024-05-09T12:03:35.697Z,36.69
2024-05-09T12:06:27.524Z,36.78
2024-05-09T12:09:19.560Z,36.65
2024-05-09T12:12:11.419Z,36.58
2024-05-09T12:15:03.211Z,36.55
2024-05-09T12:17:57.335Z,36.35
2024-05-09T12:20:50.913Z,36.05
2024-05-09T12:23:42.837Z,35.83
2024-05-09T12:26:34.504Z,35.76
2024-05-09T12:29:26.399Z,35.17
2024-05-09T12:32:18.338Z,35.42
2024-05-09T12:35:10.200Z,35.47
2024-05-09T12:38:02.163Z,35.64
2024-05-09T12:40:54.310Z,36.01
2024-05-09T12:43:46.438Z,35.88
2024-05-09T12:46:39.004Z,35.62
2024-05-09T12:49:30.997Z,35.00
2024-05-09T12:52:22.972Z,34.59
2024-05-09T12:55:14.986Z,34.15
2024-05-09T12:58:09.040Z,34.28
2024-05-09T13:01:00.675Z,34.68
2024-05-09T13:03:53.356Z,35.17
2024-05-09T13:06:45.878Z,35.37
2024-05-09T13:09:38.315Z,35.67
2024-05-09T13:12:31.788Z,36.04
2024-05-09T13:15:23.647Z,36.16
2024-05-09T13:18:18.041Z,36.19
2024-05-09T13:21:10.195Z,36.13
2024-05-09T13:24:02.508Z,35.93
2024-05-09T13:26:55.687Z,35.94
2024-05-09T13:29:47.420Z,35.91
2024-05-09T13:32:39.606Z,35.96
2024-05-09T13:35:32.025Z,36.11
2024-05-09T13:38:24.389Z,35.69
2024-05-09T13:41:16.781Z,35.26
2024-05-09T13:44:09.637Z,35.26
2024-05-09T13:47:01.927Z,35.46
2024-05-09T13:49:54.014Z,35.69
2024-05-09T13:52:46.017Z,35.26
2024-05-09T13:55:40.407Z,33.90
2024-05-09T13:58:32.669Z,32.99
2024-05-09T14:01:26.268Z,32.83
2024-05-09T14:04:18.593Z,32.88
2024-05-09T14:07:10.942Z,32.71
2024-05-09T14:10:03.977Z,32.82
2024-05-09T14:12:56.220Z,32.89
2024-05-09T14:15:48.256Z,32.58
2024-05-09T14:18:40.918Z,32.26
2024-05-09T14:21:33.342Z,32.15
2024-05-09T14:24:25.405Z,32.02
2024-05-09T14:27:17.387Z,31.83
2024-05-09T14:30:18.229Z,31.62
2024-05-09T14:33:23.605Z,31.36
2024-05-09T14:36:15.609Z,31.32
2024-05-09T14:39:07.821Z,31.34
2024-05-09T14:41:59.670Z,31.24
2024-05-09T14:44:51.579Z,30.96
2024-05-09T14:47:43.582Z,30.41
2024-05-09T14:50:38.839Z,30.03
2024-05-09T14:53:32.518Z,29.79
2024-05-09T14:56:24.509Z,29.22
2024-05-09T14:59:16.481Z,28.65
2024-05-09T15:02:08.637Z,28.33
2024-05-09T15:05:01.116Z,28.00
2024-05-09T15:07:53.523Z,27.71
2024-05-09T15:11:02.075Z,27.43
2024-05-09T15:13:55.218Z,27.10
2024-05-09T15:16:49.536Z,26.83
2024-05-09T15:19:41.614Z,26.66
2024-05-09T15:22:34.319Z,26.50
2024-05-09T15:25:27.953Z,26.32
2024-05-09T15:28:20.438Z,25.99
2024-05-09T15:31:12.574Z,25.62
2024-05-09T15:34:05.980Z,25.26
2024-05-09T15:36:59.158Z,25.05
2024-05-09T15:39:51.571Z,24.75
2024-05-09T15:42:43.614Z,24.46
2024-05-09T15:45:36.239Z,24.25
2024-05-09T15:48:28.496Z,24.00
2024-05-09T15:51:22.703Z,23.75
2024-05-09T15:54:17.555Z,23.49
2024-05-09T15:57:15.329Z,23.24
2024-05-09T16:00:18.068Z,22.92
2024-05-09T16:03:16.571Z,22.66
2024-05-09T16:06:08.728Z,22.49
2024-05-09T16:09:01.094Z,22.42
2024-05-09T16:11:53.218Z,22.39
2024-05-09T16:14:46.535Z,22.33
2024-05-09T16:17:38.579Z,22.33
2024-05-09T16:20:38.830Z,22.34
2024-05-09T16:23:34.553Z,22.33
2024-05-09T16:26:26.636Z,22.24
2024-05-09T16:29:18.806Z,22.13
2024-05-09T16:32:11.364Z,22.04
2024-05-09T16:35:03.531Z,21.95
2024-05-09T16:37:57.266Z,21.86
2024-05-09T16:40:49.832Z,21.79
2024-05-09T16:43:42.277Z,21.75
2024-05-09T16:46:35.429Z,21.71
2024-05-09T16:49:27.796Z,21.66
2024-05-09T16:52:20.113Z,21.63
2024-05-09T16:55:12.310Z,21.53
2024-05-09T16:58:05.107Z,21.48
2024-05-09T17:01:03.387Z,21.42
2024-05-09T17:03:55.638Z,21.37
2024-05-09T17:06:51.768Z,21.28
2024-05-09T17:09:44.022Z,21.25
2024-05-09T17:12:37.409Z,21.23
2024-05-09T17:15:29.341Z,21.20
2024-05-09T17:18:21.644Z,21.16
2024-05-09T17:21:17.849Z,21.08
2024-05-09T17:24:12.138Z,21.00
2024-05-09T17:27:06.363Z,20.93
2024-05-09T17:30:00.268Z,20.83
2024-05-09T17:32:52.383Z,20.80
2024-05-09T17:35:46.058Z,20.80
2024-05-09T17:38:38.993Z,20.80
2024-05-09T17:41:31.118Z,20.80
2024-05-09T17:44:23.218Z,20.80
2024-05-09T17:47:15.201Z,20.78
2024-05-09T17:50:14.640Z,20.75
2024-05-09T17:53:11.771Z,20.66
2024-05-09T17:56:04.758Z,20.53
2024-05-09T17:58:56.944Z,20.41
2024-05-09T18:01:49.302Z,20.24
2024-05-09T18:04:41.577Z,20.10
2024-05-09T18:07:33.807Z,20.04
2024-05-09T18:10:34.848Z,19.95
2024-05-09T18:13:31.259Z,19.90
2024-05-09T18:16:26.461Z,19.90
2024-05-09T18:19:19.269Z,19.85
2024-05-09T18:22:11.521Z,19.77
2024-05-09T18:25:03.808Z,19.71
2024-05-09T18:27:57.487Z,19.63
2024-05-09T18:30:49.835Z,19.56
2024-05-09T18:33:42.056Z,19.47
2024-05-09T18:36:34.799Z,19.38
2024-05-09T18:39:26.859Z,19.34
2024-05-09T18:42:18.882Z,19.30
2024-05-09T18:45:10.710Z,19.23
2024-05-09T18:48:03.152Z,19.20
2024-05-09T18:50:55.296Z,19.18
2024-05-09T18:53:48.068Z,19.15
2024-05-09T18:56:42.058Z,19.10
2024-05-09T18:59:34.292Z,19.04
2024-05-09T19:02:26.441Z,19.00
2024-05-09T19:05:19.366Z,18.95
2024-05-09T19:08:15.087Z,18.86
2024-05-09T19:11:08.902Z,18.79
2024-05-09T19:14:04.310Z,18.72
2024-05-09T19:16:59.124Z,18.67
2024-05-09T19:19:52.578Z,18.60
2024-05-09T19:22:45.170Z,18.50
2024-05-09T19:25:37.616Z,18.42
2024-05-09T19:28:30.276Z,18.35
2024-05-09T19:31:22.713Z,18.29
2024-05-09T19:34:16.680Z,18.24
2024-05-09T19:37:09.005Z,18.19
2024-05-09T19:40:02.144Z,18.13
2024-05-09T19:42:56.983Z,18.07
2024-05-09T19:45:49.052Z,18.01
2024-05-09T19:48:41.479Z,17.98
2024-05-09T19:51:34.559Z,17.96
2024-05-09T19:54:26.969Z,17.96
2024-05-09T19:57:22.144Z,17.94
2024-05-09T20:00:21.519Z,17.92
2024-05-09T20:03:14.699Z,17.90
2024-05-09T20:06:12.829Z,17.86
2024-05-09T20:09:07.105Z,17.79
2024-05-09T20:11:59.104Z,17.74
2024-05-09T20:14:50.983Z,17.69
2024-05-09T20:17:42.917Z,17.66
2024-05-09T20:20:39.964Z,17.62
2024-05-09T20:23:34.829Z,17.59
2024-05-09T20:26:29.858Z,17.54
2024-05-09T20:29:22.741Z,17.51
2024-05-09T20:32:14.670Z,17.48
2024-05-09T20:35:08.207Z,17.45
2024-05-09T20:38:03.232Z,17.44
2024-05-09T20:40:56.361Z,17.45
2024-05-09T20:43:48.339Z,17.46
2024-05-09T20:46:41.184Z,17.47
2024-05-09T20:49:34.093Z,17.49
2024-05-09T20:52:27.056Z,17.51
2024-05-09T20:55:19.207Z,17.53
2024-05-09T20:58:11.712Z,17.53
2024-05-09T21:01:03.895Z,17.54
2024-05-09T21:03:56.061Z,17.53
2024-05-09T21:06:48.032Z,17.51
2024-05-09T21:09:40.512Z,17.48
2024-05-09T21:12:33.166Z,17.44
2024-05-09T21:15:25.608Z,17.38
2024-05-09T21:18:17.652Z,17.34
2024-05-09T21:21:09.846Z,17.32
2024-05-09T21:24:01.719Z,17.31
2024-05-09T21:26:53.685Z,17.32
2024-05-09T21:29:46.092Z,17.34
2024-05-09T21:32:38.268Z,17.34
2024-05-09T21:35:30.826Z,17.36
2024-05-09T21:38:22.909Z,17.36
2024-05-09T21:41:14.881Z,17.36
2024-05-09T21:44:07.741Z,17.36
2024-05-09T21:46:59.665Z,17.34
2024-05-09T21:49:51.814Z,17.33
2024-05-09T21:52:43.735Z,17.29
2024-05-09T21:55:35.788Z,17.27
2024-05-09T21:58:28.738Z,17.25
2024-05-09T22:01:20.799Z,17.24
2024-05-09T22:04:12.975Z,17.22
2024-05-09T22:07:06.661Z,17.22
2024-05-09T22:09:59.049Z,17.21
2024-05-09T22:12:53.972Z,17.18
2024-05-09T22:15:46.236Z,17.16
2024-05-09T22:18:38.654Z,17.13
2024-05-09T22:21:30.987Z,17.10
2024-05-09T22:24:23.267Z,17.08
2024-05-09T22:27:15.133Z,17.05
2024-05-09T22:30:11.864Z,17.03
2024-05-09T22:33:12.005Z,17.01
2024-05-09T22:36:04.110Z,16.99
2024-05-09T22:38:56.390Z,16.99
2024-05-09T22:41:48.659Z,16.97
2024-05-09T22:44:43.436Z,16.99
2024-05-09T22:47:36.364Z,16.99
2024-05-09T22:50:33.270Z,16.96
2024-05-09T22:53:26.747Z,16.91
2024-05-09T22:56:32.138Z,16.88
2024-05-09T22:59:24.007Z,16.82
2024-05-09T23:02:15.856Z,16.75
2024-05-09T23:05:08.638Z,16.68
2024-05-09T23:08:01.514Z,16.64
2024-05-09T23:10:53.791Z,16.61
2024-05-09T23:13:45.820Z,16.60
2024-05-09T23:16:38.790Z,16.61
2024-05-09T23:19:34.745Z,16.63
2024-05-09T23:22:29.735Z,16.62
2024-05-09T23:25:22.025Z,16.61
2024-05-09T23:28:14.171Z,16.58
2024-05-09T23:31:07.515Z,16.55
2024-05-09T23:33:59.973Z,16.53
2024-05-09T23:36:51.889Z,16.50
2024-05-09T23:39:44.014Z,16.46
2024-05-09T23:42:36.226Z,16.41
2024-05-09T23:45:28.311Z,16.37
2024-05-09T23:48:20.522Z,16.35
2024-05-09T23:51:12.658Z,16.35
2024-05-09T23:54:04.576Z,16.35
2024-05-09T23:56:56.759Z,16.35
2024-05-09T23:59:48.593Z,16.33
